Aguas Vermelhas, Brazil
Current Conditions -  °F | °C
As of 5:30 AM on Saturday 25 Oct 2014 (Local Time) from SBQV Reporting Station
Broken Clouds Broken Clouds  
Wind Chill: 64°   Ceiling: 900
Heat Index: 64°   Visibility: 6mi
Dew Point: 63°   Wind: 9mph
Humidity: 94%   Direction: 80°E
Pressure: 30.06"   Gusts: NA
Location:  15.75°S, 41.46°W
Report Text: SBQV 250730Z 08008KT 9999 BKN009 18/17 Q1018
Loading
Personal Weather Stations






























Interactive Weather Map
Tropical Storm Tracking
New forecast layout! Learn more

10-Day Weather Forecast

Advertisements
Track Severe Weather on mobile